sensor_id;sensor_type;location;lat;lon;timestamp;temperature;humidity
57564;DHT22;43400;45.926;6.724;2023-03-23T00:01:19;11.90;68.00
57564;DHT22;43400;45.926;6.724;2023-03-23T00:03:52;11.80;69.00
57564;DHT22;43400;45.926;6.724;2023-03-23T00:06:26;11.80;67.80
57564;DHT22;43400;45.926;6.724;2023-03-23T00:08:59;11.80;67.90
57564;DHT22;43400;45.926;6.724;2023-03-23T00:11:32;11.90;68.10
57564;DHT22;43400;45.926;6.724;2023-03-23T00:14:04;11.90;66.00
57564;DHT22;43400;45.926;6.724;2023-03-23T00:16:36;12.00;66.30
57564;DHT22;43400;45.926;6.724;2023-03-23T00:19:10;12.00;66.40
57564;DHT22;43400;45.926;6.724;2023-03-23T00:21:43;12.00;67.50
57564;DHT22;43400;45.926;6.724;2023-03-23T00:24:17;12.00;67.90
57564;DHT22;43400;45.926;6.724;2023-03-23T00:26:49;12.00;66.80
57564;DHT22;43400;45.926;6.724;2023-03-23T00:29:22;12.00;67.10
57564;DHT22;43400;45.926;6.724;2023-03-23T00:31:54;12.00;67.70
57564;DHT22;43400;45.926;6.724;2023-03-23T00:34:26;12.00;67.60
57564;DHT22;43400;45.926;6.724;2023-03-23T00:36:59;12.00;68.80
57564;DHT22;43400;45.926;6.724;2023-03-23T00:39:31;12.00;68.90
57564;DHT22;43400;45.926;6.724;2023-03-23T00:42:04;12.00;68.20
57564;DHT22;43400;45.926;6.724;2023-03-23T00:44:36;12.00;67.50
57564;DHT22;43400;45.926;6.724;2023-03-23T00:47:08;12.00;68.60
57564;DHT22;43400;45.926;6.724;2023-03-23T00:49:40;12.00;68.00
57564;DHT22;43400;45.926;6.724;2023-03-23T00:52:12;11.90;67.90
57564;DHT22;43400;45.926;6.724;2023-03-23T00:54:43;12.00;66.80
57564;DHT22;43400;45.926;6.724;2023-03-23T00:57:15;12.00;67.40
57564;DHT22;43400;45.926;6.724;2023-03-23T00:59:47;11.90;66.80
57564;DHT22;43400;45.926;6.724;2023-03-23T01:02:19;12.00;67.40
57564;DHT22;43400;45.926;6.724;2023-03-23T01:04:51;12.10;66.80
57564;DHT22;43400;45.926;6.724;2023-03-23T01:07:23;12.10;67.40
57564;DHT22;43400;45.926;6.724;2023-03-23T01:09:54;12.00;66.80
57564;DHT22;43400;45.926;6.724;2023-03-23T01:12:26;12.00;67.70
57564;DHT22;43400;45.926;6.724;2023-03-23T01:14:57;12.10;67.80
57564;DHT22;43400;45.926;6.724;2023-03-23T01:17:29;12.10;67.60
57564;DHT22;43400;45.926;6.724;2023-03-23T01:20:01;12.00;67.70
57564;DHT22;43400;45.926;6.724;2023-03-23T01:22:33;12.10;67.30
57564;DHT22;43400;45.926;6.724;2023-03-23T01:25:06;12.10;68.40
57564;DHT22;43400;45.926;6.724;2023-03-23T01:27:39;12.00;67.90
57564;DHT22;43400;45.926;6.724;2023-03-23T01:30:12;12.00;67.60
57564;DHT22;43400;45.926;6.724;2023-03-23T01:32:44;12.00;67.30
57564;DHT22;43400;45.926;6.724;2023-03-23T01:35:16;11.90;68.40
57564;DHT22;43400;45.926;6.724;2023-03-23T01:37:49;11.90;69.30
57564;DHT22;43400;45.926;6.724;2023-03-23T01:40:20;11.90;70.40
57564;DHT22;43400;45.926;6.724;2023-03-23T01:42:52;11.80;72.30
57564;DHT22;43400;45.926;6.724;2023-03-23T01:45:31;11.80;73.60
57564;DHT22;43400;45.926;6.724;2023-03-23T01:48:13;11.70;74.30
57564;DHT22;43400;45.926;6.724;2023-03-23T01:50:58;11.70;74.10
57564;DHT22;43400;45.926;6.724;2023-03-23T01:53:38;11.70;72.90
57564;DHT22;43400;45.926;6.724;2023-03-23T01:56:14;11.60;72.70
57564;DHT22;43400;45.926;6.724;2023-03-23T01:58:47;11.50;75.20
57564;DHT22;43400;45.926;6.724;2023-03-23T02:01:20;11.60;75.00
57564;DHT22;43400;45.926;6.724;2023-03-23T02:03:54;11.60;74.90
57564;DHT22;43400;45.926;6.724;2023-03-23T02:06:26;11.50;72.90
57564;DHT22;43400;45.926;6.724;2023-03-23T02:08:58;11.70;71.00
57564;DHT22;43400;45.926;6.724;2023-03-23T02:11:29;11.90;71.30
57564;DHT22;43400;45.926;6.724;2023-03-23T02:14:01;11.90;72.90
57564;DHT22;43400;45.926;6.724;2023-03-23T02:16:43;11.90;72.50
57564;DHT22;43400;45.926;6.724;2023-03-23T02:22:22;11.80;72.80
57564;DHT22;43400;45.926;6.724;2023-03-23T02:39:23;12.30;70.20
57564;DHT22;43400;45.926;6.724;2023-03-23T02:42:06;12.30;69.70
57564;DHT22;43400;45.926;6.724;2023-03-23T02:44:41;12.40;69.40
57564;DHT22;43400;45.926;6.724;2023-03-23T02:47:25;12.40;69.70
57564;DHT22;43400;45.926;6.724;2023-03-23T02:49:59;12.40;69.10
57564;DHT22;43400;45.926;6.724;2023-03-23T02:52:33;12.50;69.90
57564;DHT22;43400;45.926;6.724;2023-03-23T02:55:07;12.50;70.00
57564;DHT22;43400;45.926;6.724;2023-03-23T02:57:40;12.60;69.60
57564;DHT22;43400;45.926;6.724;2023-03-23T03:00:14;12.60;69.70
57564;DHT22;43400;45.926;6.724;2023-03-23T03:02:52;12.70;69.20
57564;DHT22;43400;45.926;6.724;2023-03-23T03:05:59;12.70;68.90
57564;DHT22;43400;45.926;6.724;2023-03-23T03:11:29;12.80;70.30
57564;DHT22;43400;45.926;6.724;2023-03-23T03:14:10;12.70;69.70
57564;DHT22;43400;45.926;6.724;2023-03-23T03:16:53;12.70;69.00
57564;DHT22;43400;45.926;6.724;2023-03-23T03:19:58;12.70;69.10
57564;DHT22;43400;45.926;6.724;2023-03-23T03:22:32;12.70;68.40
57564;DHT22;43400;45.926;6.724;2023-03-23T03:25:06;12.80;68.20
57564;DHT22;43400;45.926;6.724;2023-03-23T03:27:39;12.70;69.50
57564;DHT22;43400;45.926;6.724;2023-03-23T03:30:13;12.70;69.70
57564;DHT22;43400;45.926;6.724;2023-03-23T03:32:50;12.60;70.30
57564;DHT22;43400;45.926;6.724;2023-03-23T03:35:22;12.60;71.30
57564;DHT22;43400;45.926;6.724;2023-03-23T03:37:55;12.50;71.50
57564;DHT22;43400;45.926;6.724;2023-03-23T03:40:27;12.50;70.70
57564;DHT22;43400;45.926;6.724;2023-03-23T03:42:58;12.50;69.60
57564;DHT22;43400;45.926;6.724;2023-03-23T03:45:30;12.50;69.60
57564;DHT22;43400;45.926;6.724;2023-03-23T03:48:01;12.50;69.20
57564;DHT22;43400;45.926;6.724;2023-03-23T03:50:33;12.50;69.30
57564;DHT22;43400;45.926;6.724;2023-03-23T03:53:05;12.50;68.90
57564;DHT22;43400;45.926;6.724;2023-03-23T03:55:39;12.60;68.00
57564;DHT22;43400;45.926;6.724;2023-03-23T03:58:10;12.60;68.10
57564;DHT22;43400;45.926;6.724;2023-03-23T04:00:42;12.60;67.60
57564;DHT22;43400;45.926;6.724;2023-03-23T04:03:15;12.60;67.10
57564;DHT22;43400;45.926;6.724;2023-03-23T04:05:46;12.70;66.80
57564;DHT22;43400;45.926;6.724;2023-03-23T04:08:18;12.70;66.90
57564;DHT22;43400;45.926;6.724;2023-03-23T04:10:50;12.70;66.10
57564;DHT22;43400;45.926;6.724;2023-03-23T04:13:22;12.70;67.10
57564;DHT22;43400;45.926;6.724;2023-03-23T04:15:54;12.60;66.60
57564;DHT22;43400;45.926;6.724;2023-03-23T04:18:25;12.60;66.80
57564;DHT22;43400;45.926;6.724;2023-03-23T04:20:58;12.50;67.30
57564;DHT22;43400;45.926;6.724;2023-03-23T04:23:30;12.40;67.20
57564;DHT22;43400;45.926;6.724;2023-03-23T04:26:03;12.40;67.60
57564;DHT22;43400;45.926;6.724;2023-03-23T04:28:35;12.40;67.50
57564;DHT22;43400;45.926;6.724;2023-03-23T04:31:06;12.50;66.10
57564;DHT22;43400;45.926;6.724;2023-03-23T04:33:38;12.50;66.10
57564;DHT22;43400;45.926;6.724;2023-03-23T04:36:10;12.50;66.70
57564;DHT22;43400;45.926;6.724;2023-03-23T04:38:41;12.30;67.80
57564;DHT22;43400;45.926;6.724;2023-03-23T04:41:13;12.20;67.90
57564;DHT22;43400;45.926;6.724;2023-03-23T04:43:44;12.10;68.50
57564;DHT22;43400;45.926;6.724;2023-03-23T04:46:16;12.10;68.90
57564;DHT22;43400;45.926;6.724;2023-03-23T04:48:48;12.00;68.80
57564;DHT22;43400;45.926;6.724;2023-03-23T04:51:20;11.90;69.80
57564;DHT22;43400;45.926;6.724;2023-03-23T04:53:52;11.90;69.60
57564;DHT22;43400;45.926;6.724;2023-03-23T04:56:24;11.90;69.50
57564;DHT22;43400;45.926;6.724;2023-03-23T04:58:55;12.00;69.40
57564;DHT22;43400;45.926;6.724;2023-03-23T05:01:27;12.10;68.30
57564;DHT22;43400;45.926;6.724;2023-03-23T05:03:59;12.10;68.60
57564;DHT22;43400;45.926;6.724;2023-03-23T05:06:30;12.20;67.90
57564;DHT22;43400;45.926;6.724;2023-03-23T05:09:01;12.10;68.50
57564;DHT22;43400;45.926;6.724;2023-03-23T05:11:33;12.00;69.40
57564;DHT22;43400;45.926;6.724;2023-03-23T05:14:04;12.00;70.00
57564;DHT22;43400;45.926;6.724;2023-03-23T05:16:36;12.00;70.40
57564;DHT22;43400;45.926;6.724;2023-03-23T05:19:08;12.00;71.30
57564;DHT22;43400;45.926;6.724;2023-03-23T05:21:39;11.90;72.00
57564;DHT22;43400;45.926;6.724;2023-03-23T05:24:11;11.80;71.50
57564;DHT22;43400;45.926;6.724;2023-03-23T05:26:43;11.80;72.50
57564;DHT22;43400;45.926;6.724;2023-03-23T05:29:14;11.80;71.50
57564;DHT22;43400;45.926;6.724;2023-03-23T05:31:46;11.80;71.00
57564;DHT22;43400;45.926;6.724;2023-03-23T05:34:18;11.80;71.30
57564;DHT22;43400;45.926;6.724;2023-03-23T05:36:49;11.80;71.70
57564;DHT22;43400;45.926;6.724;2023-03-23T05:39:21;11.80;71.00
57564;DHT22;43400;45.926;6.724;2023-03-23T05:41:53;11.70;72.90
57564;DHT22;43400;45.926;6.724;2023-03-23T05:44:24;11.80;72.30
57564;DHT22;43400;45.926;6.724;2023-03-23T05:46:56;11.80;72.10
57564;DHT22;43400;45.926;6.724;2023-03-23T05:49:27;11.80;71.50
57564;DHT22;43400;45.926;6.724;2023-03-23T05:51:59;11.80;71.50
57564;DHT22;43400;45.926;6.724;2023-03-23T05:54:30;11.80;72.70
57564;DHT22;43400;45.926;6.724;2023-03-23T05:57:02;11.90;72.30
57564;DHT22;43400;45.926;6.724;2023-03-23T05:59:35;11.90;71.10
57564;DHT22;43400;45.926;6.724;2023-03-23T06:02:07;12.00;70.50
57564;DHT22;43400;45.926;6.724;2023-03-23T06:04:38;12.00;71.70
57564;DHT22;43400;45.926;6.724;2023-03-23T06:07:10;12.10;71.30
57564;DHT22;43400;45.926;6.724;2023-03-23T06:09:41;12.20;70.80
57564;DHT22;43400;45.926;6.724;2023-03-23T06:12:13;12.10;71.00
57564;DHT22;43400;45.926;6.724;2023-03-23T06:14:44;12.10;71.20
57564;DHT22;43400;45.926;6.724;2023-03-23T06:17:16;12.20;71.50
57564;DHT22;43400;45.926;6.724;2023-03-23T06:19:48;12.20;71.30
57564;DHT22;43400;45.926;6.724;2023-03-23T06:22:19;12.30;71.20
57564;DHT22;43400;45.926;6.724;2023-03-23T06:24:51;12.30;70.80
57564;DHT22;43400;45.926;6.724;2023-03-23T06:27:23;12.40;71.90
57564;DHT22;43400;45.926;6.724;2023-03-23T06:29:55;12.30;73.40
57564;DHT22;43400;45.926;6.724;2023-03-23T06:32:28;12.30;73.60
57564;DHT22;43400;45.926;6.724;2023-03-23T06:35:02;12.30;74.70
57564;DHT22;43400;45.926;6.724;2023-03-23T06:37:33;12.40;73.90
57564;DHT22;43400;45.926;6.724;2023-03-23T06:40:06;12.40;73.20
57564;DHT22;43400;45.926;6.724;2023-03-23T06:42:38;12.40;72.50
57564;DHT22;43400;45.926;6.724;2023-03-23T06:45:10;12.50;73.00
57564;DHT22;43400;45.926;6.724;2023-03-23T06:47:41;12.40;73.60
57564;DHT22;43400;45.926;6.724;2023-03-23T06:50:13;12.40;73.90
57564;DHT22;43400;45.926;6.724;2023-03-23T06:52:49;12.50;74.60
57564;DHT22;43400;45.926;6.724;2023-03-23T06:55:21;12.60;75.20
57564;DHT22;43400;45.926;6.724;2023-03-23T06:57:52;12.60;76.00
57564;DHT22;43400;45.926;6.724;2023-03-23T07:00:24;12.80;75.80
57564;DHT22;43400;45.926;6.724;2023-03-23T07:02:55;12.90;75.90
57564;DHT22;43400;45.926;6.724;2023-03-23T07:05:27;13.00;75.00
57564;DHT22;43400;45.926;6.724;2023-03-23T07:07:59;13.10;74.30
57564;DHT22;43400;45.926;6.724;2023-03-23T07:10:31;13.20;70.70
57564;DHT22;43400;45.926;6.724;2023-03-23T07:13:03;13.30;71.40
57564;DHT22;43400;45.926;6.724;2023-03-23T07:15:34;13.40;71.50
57564;DHT22;43400;45.926;6.724;2023-03-23T07:18:06;13.50;73.20
57564;DHT22;43400;45.926;6.724;2023-03-23T07:20:38;13.50;72.20
57564;DHT22;43400;45.926;6.724;2023-03-23T07:23:09;13.50;72.30
57564;DHT22;43400;45.926;6.724;2023-03-23T07:25:42;13.60;71.60
57564;DHT22;43400;45.926;6.724;2023-03-23T07:28:14;13.50;70.30
57564;DHT22;43400;45.926;6.724;2023-03-23T07:30:46;13.50;69.40
57564;DHT22;43400;45.926;6.724;2023-03-23T07:33:18;13.60;68.00
57564;DHT22;43400;45.926;6.724;2023-03-23T07:35:50;13.80;69.70
57564;DHT22;43400;45.926;6.724;2023-03-23T07:38:21;14.00;67.60
57564;DHT22;43400;45.926;6.724;2023-03-23T07:40:53;14.20;68.00
57564;DHT22;43400;45.926;6.724;2023-03-23T07:43:25;14.40;65.30
57564;DHT22;43400;45.926;6.724;2023-03-23T07:45:57;14.60;64.10
57564;DHT22;43400;45.926;6.724;2023-03-23T07:48:28;14.80;64.60
57564;DHT22;43400;45.926;6.724;2023-03-23T07:51:00;14.90;64.60
57564;DHT22;43400;45.926;6.724;2023-03-23T07:53:32;15.00;63.50
57564;DHT22;43400;45.926;6.724;2023-03-23T07:56:04;15.20;64.80
57564;DHT22;43400;45.926;6.724;2023-03-23T07:58:36;15.20;64.80
57564;DHT22;43400;45.926;6.724;2023-03-23T08:01:07;15.20;64.10
57564;DHT22;43400;45.926;6.724;2023-03-23T08:03:39;15.20;64.90
57564;DHT22;43400;45.926;6.724;2023-03-23T08:06:10;15.30;66.50
57564;DHT22;43400;45.926;6.724;2023-03-23T08:08:42;15.20;61.30
57564;DHT22;43400;45.926;6.724;2023-03-23T08:11:13;15.20;61.40
57564;DHT22;43400;45.926;6.724;2023-03-23T08:13:46;15.20;64.60
57564;DHT22;43400;45.926;6.724;2023-03-23T08:16:17;15.20;65.30
57564;DHT22;43400;45.926;6.724;2023-03-23T08:18:49;15.10;66.20
57564;DHT22;43400;45.926;6.724;2023-03-23T08:21:21;15.20;67.30
57564;DHT22;43400;45.926;6.724;2023-03-23T08:23:52;15.20;67.20
57564;DHT22;43400;45.926;6.724;2023-03-23T08:26:24;15.10;66.20
57564;DHT22;43400;45.926;6.724;2023-03-23T08:28:56;15.20;65.40
57564;DHT22;43400;45.926;6.724;2023-03-23T08:31:27;15.30;65.60
57564;DHT22;43400;45.926;6.724;2023-03-23T08:33:59;15.50;63.80
57564;DHT22;43400;45.926;6.724;2023-03-23T08:36:32;15.70;63.10
57564;DHT22;43400;45.926;6.724;2023-03-23T08:39:04;15.90;62.80
57564;DHT22;43400;45.926;6.724;2023-03-23T08:41:36;16.00;61.30
57564;DHT22;43400;45.926;6.724;2023-03-23T08:44:07;16.20;63.60
57564;DHT22;43400;45.926;6.724;2023-03-23T08:46:39;16.40;63.20
57564;DHT22;43400;45.926;6.724;2023-03-23T08:49:10;16.50;62.80
57564;DHT22;43400;45.926;6.724;2023-03-23T08:51:42;16.60;61.40
57564;DHT22;43400;45.926;6.724;2023-03-23T08:54:13;16.70;63.00
57564;DHT22;43400;45.926;6.724;2023-03-23T08:56:45;16.80;62.20
57564;DHT22;43400;45.926;6.724;2023-03-23T08:59:17;16.90;61.90
57564;DHT22;43400;45.926;6.724;2023-03-23T09:01:48;16.90;61.40
57564;DHT22;43400;45.926;6.724;2023-03-23T09:04:20;16.90;60.80
57564;DHT22;43400;45.926;6.724;2023-03-23T09:06:52;16.90;60.30
57564;DHT22;43400;45.926;6.724;2023-03-23T09:09:23;17.00;60.90
57564;DHT22;43400;45.926;6.724;2023-03-23T09:11:55;17.00;61.70
57564;DHT22;43400;45.926;6.724;2023-03-23T09:14:26;16.90;59.40
57564;DHT22;43400;45.926;6.724;2023-03-23T09:16:58;16.80;59.80
57564;DHT22;43400;45.926;6.724;2023-03-23T09:19:31;16.80;59.50
57564;DHT22;43400;45.926;6.724;2023-03-23T09:22:03;17.00;61.50
57564;DHT22;43400;45.926;6.724;2023-03-23T09:24:35;17.10;59.60
57564;DHT22;43400;45.926;6.724;2023-03-23T09:27:06;17.00;59.30
57564;DHT22;43400;45.926;6.724;2023-03-23T09:29:38;17.10;58.00
57564;DHT22;43400;45.926;6.724;2023-03-23T09:32:10;17.20;57.90
57564;DHT22;43400;45.926;6.724;2023-03-23T09:34:41;17.30;57.10
57564;DHT22;43400;45.926;6.724;2023-03-23T09:37:13;17.30;56.60
57564;DHT22;43400;45.926;6.724;2023-03-23T09:39:44;17.30;56.70
57564;DHT22;43400;45.926;6.724;2023-03-23T09:45:06;17.50;59.60
57564;DHT22;43400;45.926;6.724;2023-03-23T09:50:30;17.60;62.70
57564;DHT22;43400;45.926;6.724;2023-03-23T09:53:15;17.60;59.40
57564;DHT22;43400;45.926;6.724;2023-03-23T09:55:48;17.60;59.00
57564;DHT22;43400;45.926;6.724;2023-03-23T09:58:57;17.60;58.30
57564;DHT22;43400;45.926;6.724;2023-03-23T10:01:53;17.70;59.20
57564;DHT22;43400;45.926;6.724;2023-03-23T10:04:44;17.90;58.10
57564;DHT22;43400;45.926;6.724;2023-03-23T10:07:24;18.10;56.10
57564;DHT22;43400;45.926;6.724;2023-03-23T10:10:01;18.30;55.40
57564;DHT22;43400;45.926;6.724;2023-03-23T10:12:49;18.40;53.00
57564;DHT22;43400;45.926;6.724;2023-03-23T10:15:33;18.70;51.90
57564;DHT22;43400;45.926;6.724;2023-03-23T10:18:39;19.10;54.20
57564;DHT22;43400;45.926;6.724;2023-03-23T10:21:21;19.40;52.80
57564;DHT22;43400;45.926;6.724;2023-03-23T10:24:03;19.70;48.50
57564;DHT22;43400;45.926;6.724;2023-03-23T10:26:48;19.80;51.00
57564;DHT22;43400;45.926;6.724;2023-03-23T10:29:51;19.80;48.90
57564;DHT22;43400;45.926;6.724;2023-03-23T10:32:54;19.80;48.80
57564;DHT22;43400;45.926;6.724;2023-03-23T10:35:48;19.80;48.90
57564;DHT22;43400;45.926;6.724;2023-03-23T10:38:26;19.90;50.10
57564;DHT22;43400;45.926;6.724;2023-03-23T10:41:03;19.90;51.00
57564;DHT22;43400;45.926;6.724;2023-03-23T10:43:35;20.00;49.80
57564;DHT22;43400;45.926;6.724;2023-03-23T10:48:59;20.20;49.80
57564;DHT22;43400;45.926;6.724;2023-03-23T10:51:40;20.30;50.30
57564;DHT22;43400;45.926;6.724;2023-03-23T10:54:12;20.40;49.50
57564;DHT22;43400;45.926;6.724;2023-03-23T10:56:44;20.40;48.60
57564;DHT22;43400;45.926;6.724;2023-03-23T10:59:25;20.80;47.10
57564;DHT22;43400;45.926;6.724;2023-03-23T11:02:00;21.00;49.20
57564;DHT22;43400;45.926;6.724;2023-03-23T11:04:33;21.30;46.10
57564;DHT22;43400;45.926;6.724;2023-03-23T11:07:05;21.50;46.50
57564;DHT22;43400;45.926;6.724;2023-03-23T11:09:56;21.80;45.40
57564;DHT22;43400;45.926;6.724;2023-03-23T11:12:33;21.80;45.50
57564;DHT22;43400;45.926;6.724;2023-03-23T11:15:26;21.80;45.60
57564;DHT22;43400;45.926;6.724;2023-03-23T11:18:02;21.40;45.70
57564;DHT22;43400;45.926;6.724;2023-03-23T11:20:37;21.50;43.00
57564;DHT22;43400;45.926;6.724;2023-03-23T11:23:16;21.20;41.50
57564;DHT22;43400;45.926;6.724;2023-03-23T11:26:13;20.90;43.20
57564;DHT22;43400;45.926;6.724;2023-03-23T11:28:55;20.80;44.90
57564;DHT22;43400;45.926;6.724;2023-03-23T11:31:32;20.70;44.10
57564;DHT22;43400;45.926;6.724;2023-03-23T11:34:17;20.60;43.80
57564;DHT22;43400;45.926;6.724;2023-03-23T11:36:57;20.50;44.00
57564;DHT22;43400;45.926;6.724;2023-03-23T11:42:27;20.10;43.70
57564;DHT22;43400;45.926;6.724;2023-03-23T11:48:13;20.00;44.00
57564;DHT22;43400;45.926;6.724;2023-03-23T11:51:02;20.10;44.90
57564;DHT22;43400;45.926;6.724;2023-03-23T11:56:25;20.10;44.30
57564;DHT22;43400;45.926;6.724;2023-03-23T11:58:59;20.00;43.40
57564;DHT22;43400;45.926;6.724;2023-03-23T12:01:44;20.00;43.50
57564;DHT22;43400;45.926;6.724;2023-03-23T12:10:20;20.10;44.10
57564;DHT22;43400;45.926;6.724;2023-03-23T12:17:10;20.30;43.40
57564;DHT22;43400;45.926;6.724;2023-03-23T12:27:59;20.10;43.10
57564;DHT22;43400;45.926;6.724;2023-03-23T12:38:55;20.50;43.20
57564;DHT22;43400;45.926;6.724;2023-03-23T12:44:50;20.30;43.20
57564;DHT22;43400;45.926;6.724;2023-03-23T12:47:37;20.20;43.50
57564;DHT22;43400;45.926;6.724;2023-03-23T12:50:18;20.10;43.60
57564;DHT22;43400;45.926;6.724;2023-03-23T12:53:06;19.90;43.50
57564;DHT22;43400;45.926;6.724;2023-03-23T12:56:06;19.90;43.70
57564;DHT22;43400;45.926;6.724;2023-03-23T12:58:41;19.80;44.60
57564;DHT22;43400;45.926;6.724;2023-03-23T13:01:32;19.70;43.90
57564;DHT22;43400;45.926;6.724;2023-03-23T13:04:14;19.60;43.60
57564;DHT22;43400;45.926;6.724;2023-03-23T13:06:52;19.50;44.40
57564;DHT22;43400;45.926;6.724;2023-03-23T13:09:42;19.50;44.00
57564;DHT22;43400;45.926;6.724;2023-03-23T13:12:27;19.40;45.00
57564;DHT22;43400;45.926;6.724;2023-03-23T13:18:08;19.30;44.60
57564;DHT22;43400;45.926;6.724;2023-03-23T13:21:00;19.30;45.00
57564;DHT22;43400;45.926;6.724;2023-03-23T13:23:49;19.20;46.00
57564;DHT22;43400;45.926;6.724;2023-03-23T13:26:38;19.00;46.90
57564;DHT22;43400;45.926;6.724;2023-03-23T13:29:19;19.00;47.00
57564;DHT22;43400;45.926;6.724;2023-03-23T13:32:50;19.00;45.30
57564;DHT22;43400;45.926;6.724;2023-03-23T13:35:04;19.10;45.70
57564;DHT22;43400;45.926;6.724;2023-03-23T13:37:45;19.00;45.70
57564;DHT22;43400;45.926;6.724;2023-03-23T13:40:29;19.00;45.20
57564;DHT22;43400;45.926;6.724;2023-03-23T13:43:01;19.10;45.80
57564;DHT22;43400;45.926;6.724;2023-03-23T13:45:45;19.20;45.50
57564;DHT22;43400;45.926;6.724;2023-03-23T13:48:24;19.30;46.00
57564;DHT22;43400;45.926;6.724;2023-03-23T13:50:59;19.40;45.60
57564;DHT22;43400;45.926;6.724;2023-03-23T13:53:47;19.50;45.10
57564;DHT22;43400;45.926;6.724;2023-03-23T13:56:56;19.60;45.70
57564;DHT22;43400;45.926;6.724;2023-03-23T13:59:57;19.60;45.80
57564;DHT22;43400;45.926;6.724;2023-03-23T14:02:38;19.50;45.00
57564;DHT22;43400;45.926;6.724;2023-03-23T14:05:42;19.50;45.10
57564;DHT22;43400;45.926;6.724;2023-03-23T14:14:20;19.50;46.30
57564;DHT22;43400;45.926;6.724;2023-03-23T14:17:10;19.50;46.10
57564;DHT22;43400;45.926;6.724;2023-03-23T14:20:00;19.50;46.00
57564;DHT22;43400;45.926;6.724;2023-03-23T14:22:52;19.50;46.00
57564;DHT22;43400;45.926;6.724;2023-03-23T14:25:33;19.50;46.80
57564;DHT22;43400;45.926;6.724;2023-03-23T14:28:18;19.40;46.60
57564;DHT22;43400;45.926;6.724;2023-03-23T14:30:54;19.20;47.60
57564;DHT22;43400;45.926;6.724;2023-03-23T14:33:29;19.10;47.50
57564;DHT22;43400;45.926;6.724;2023-03-23T14:36:09;19.00;47.30
57564;DHT22;43400;45.926;6.724;2023-03-23T14:38:54;19.00;47.90
57564;DHT22;43400;45.926;6.724;2023-03-23T14:41:30;18.90;47.90
57564;DHT22;43400;45.926;6.724;2023-03-23T14:44:14;18.80;46.90
57564;DHT22;43400;45.926;6.724;2023-03-23T14:47:04;18.60;47.60
57564;DHT22;43400;45.926;6.724;2023-03-23T14:49:38;18.60;47.90
57564;DHT22;43400;45.926;6.724;2023-03-23T14:52:17;18.50;48.20
57564;DHT22;43400;45.926;6.724;2023-03-23T14:54:49;18.30;49.40
57564;DHT22;43400;45.926;6.724;2023-03-23T14:57:28;18.20;49.10
57564;DHT22;43400;45.926;6.724;2023-03-23T15:00:00;18.10;49.40
57564;DHT22;43400;45.926;6.724;2023-03-23T15:02:37;18.10;49.60
57564;DHT22;43400;45.926;6.724;2023-03-23T15:05:19;17.90;50.00
57564;DHT22;43400;45.926;6.724;2023-03-23T15:07:56;17.80;50.40
57564;DHT22;43400;45.926;6.724;2023-03-23T15:10:30;17.70;50.70
57564;DHT22;43400;45.926;6.724;2023-03-23T15:13:02;17.60;51.60
57564;DHT22;43400;45.926;6.724;2023-03-23T15:15:35;17.60;52.30
57564;DHT22;43400;45.926;6.724;2023-03-23T15:18:36;17.40;52.80
57564;DHT22;43400;45.926;6.724;2023-03-23T15:21:23;17.30;53.80
57564;DHT22;43400;45.926;6.724;2023-03-23T15:23:55;17.10;54.80
57564;DHT22;43400;45.926;6.724;2023-03-23T15:26:33;17.00;54.70
57564;DHT22;43400;45.926;6.724;2023-03-23T15:31:53;16.80;55.90
57564;DHT22;43400;45.926;6.724;2023-03-23T15:34:32;16.70;56.70
57564;DHT22;43400;45.926;6.724;2023-03-23T15:37:17;16.60;57.20
57564;DHT22;43400;45.926;6.724;2023-03-23T15:39:49;16.50;57.90
57564;DHT22;43400;45.926;6.724;2023-03-23T15:42:26;16.50;58.30
57564;DHT22;43400;45.926;6.724;2023-03-23T15:45:27;16.40;60.00
57564;DHT22;43400;45.926;6.724;2023-03-23T15:48:11;16.30;60.40
57564;DHT22;43400;45.926;6.724;2023-03-23T15:50:46;16.30;60.70
57564;DHT22;43400;45.926;6.724;2023-03-23T15:55:50;16.20;63.10
57564;DHT22;43400;45.926;6.724;2023-03-23T15:58:22;16.00;70.40
57564;DHT22;43400;45.926;6.724;2023-03-23T16:00:54;15.70;73.40
57564;DHT22;43400;45.926;6.724;2023-03-23T16:03:49;15.30;78.40
57564;DHT22;43400;45.926;6.724;2023-03-23T16:06:20;14.80;79.70
57564;DHT22;43400;45.926;6.724;2023-03-23T16:08:53;14.60;80.50
57564;DHT22;43400;45.926;6.724;2023-03-23T16:11:28;14.50;82.10
57564;DHT22;43400;45.926;6.724;2023-03-23T16:14:01;14.40;83.30
57564;DHT22;43400;45.926;6.724;2023-03-23T16:16:33;14.30;84.30
57564;DHT22;43400;45.926;6.724;2023-03-23T16:19:05;14.30;84.00
57564;DHT22;43400;45.926;6.724;2023-03-23T16:21:37;14.20;84.40
57564;DHT22;43400;45.926;6.724;2023-03-23T16:24:09;14.10;87.40
57564;DHT22;43400;45.926;6.724;2023-03-23T16:26:40;13.90;90.10
57564;DHT22;43400;45.926;6.724;2023-03-23T16:29:14;13.80;90.10
57564;DHT22;43400;45.926;6.724;2023-03-23T16:31:47;13.70;90.60
57564;DHT22;43400;45.926;6.724;2023-03-23T16:34:18;13.60;89.40
57564;DHT22;43400;45.926;6.724;2023-03-23T16:36:50;13.60;90.60
57564;DHT22;43400;45.926;6.724;2023-03-23T16:39:21;13.50;91.30
57564;DHT22;43400;45.926;6.724;2023-03-23T16:41:53;13.40;91.90
57564;DHT22;43400;45.926;6.724;2023-03-23T16:44:25;13.40;91.80
57564;DHT22;43400;45.926;6.724;2023-03-23T16:46:56;13.40;91.70
57564;DHT22;43400;45.926;6.724;2023-03-23T16:49:28;13.40;90.60
57564;DHT22;43400;45.926;6.724;2023-03-23T16:52:00;13.50;90.30
57564;DHT22;43400;45.926;6.724;2023-03-23T16:54:32;13.50;90.30
57564;DHT22;43400;45.926;6.724;2023-03-23T16:57:03;13.50;90.20
57564;DHT22;43400;45.926;6.724;2023-03-23T16:59:35;13.50;90.10
57564;DHT22;43400;45.926;6.724;2023-03-23T17:02:09;13.60;88.80
57564;DHT22;43400;45.926;6.724;2023-03-23T17:04:43;13.60;89.10
57564;DHT22;43400;45.926;6.724;2023-03-23T17:07:15;13.60;89.10
57564;DHT22;43400;45.926;6.724;2023-03-23T17:09:47;13.60;87.90
57564;DHT22;43400;45.926;6.724;2023-03-23T17:12:18;13.60;88.10
57564;DHT22;43400;45.926;6.724;2023-03-23T17:14:50;13.60;89.10
57564;DHT22;43400;45.926;6.724;2023-03-23T17:17:22;13.60;87.10
57564;DHT22;43400;45.926;6.724;2023-03-23T17:19:54;13.60;86.60
57564;DHT22;43400;45.926;6.724;2023-03-23T17:22:26;13.60;88.00
57564;DHT22;43400;45.926;6.724;2023-03-23T17:24:58;13.60;87.90
57564;DHT22;43400;45.926;6.724;2023-03-23T17:27:30;13.60;87.60
57564;DHT22;43400;45.926;6.724;2023-03-23T17:30:04;13.60;87.90
57564;DHT22;43400;45.926;6.724;2023-03-23T17:32:37;13.60;87.20
57564;DHT22;43400;45.926;6.724;2023-03-23T17:35:09;13.60;86.80
57564;DHT22;43400;45.926;6.724;2023-03-23T17:37:40;13.50;86.90
57564;DHT22;43400;45.926;6.724;2023-03-23T17:40:13;13.50;87.40
57564;DHT22;43400;45.926;6.724;2023-03-23T17:42:44;13.40;87.40
57564;DHT22;43400;45.926;6.724;2023-03-23T17:45:16;13.40;87.90